Time;durP1;ratioP1;P1;durP2;ratioP2;P2;SDS_P1;SDS_P2;PMS_P1;PMS_P2;Temp;Humidity;BMP_temperature;BMP_pressure;BME280_temperature;BME280_humidity;BME280_pressure;Samples;Min_cycle;Max_cycle;Signal;HPM_P1;HPM_P2
2023/03/26 00:00:04;;;;;;;1.42;0.60;;;2.60;97.40;;;;;;21070717;28;20032;-47
2023/03/26 00:10:14;;;;;;;0.98;0.55;;;2.50;98.70;;;;;;21071137;28;20040;-48
2023/03/26 00:20:16;;;;;;;1.40;0.65;;;2.30;98.90;;;;;;21070756;28;20040;-49
2023/03/26 00:30:17;;;;;;;0.60;0.40;;;2.40;99.40;;;;;;21069242;28;20495;-47
2023/03/26 00:40:19;;;;;;;2.10;0.30;;;2.40;99.30;;;;;;21068795;28;20058;-49
2023/03/26 00:50:20;;;;;;;0.30;0.20;;;2.60;98.40;;;;;;21068492;28;20032;-49
2023/03/26 01:00:33;;;;;;;0.20;0.10;;;2.70;97.20;;;;;;21079077;28;20241;-46
2023/03/26 01:21:29;;;;;;;0.90;0.17;;;3.20;94.80;;;;;;23060254;23;20059;-50
2023/03/26 01:31:41;;;;;;;0.73;0.10;;;3.60;93.60;;;;;;20427284;29;20058;-47
2023/03/26 01:41:47;;;;;;;0.20;0.10;;;3.60;92.50;;;;;;20428134;29;20027;-52
2023/03/26 01:51:50;;;;;;;0.30;0.10;;;3.80;92.60;;;;;;20422714;29;20028;-51
2023/03/26 02:02:03;;;;;;;0.20;0.10;;;3.50;91.80;;;;;;20430200;29;20039;-48
2023/03/26 02:12:07;;;;;;;0.10;0.00;;;3.90;91.00;;;;;;20474670;28;20040;-51
2023/03/26 02:22:15;;;;;;;0.17;0.00;;;4.00;91.20;;;;;;20421591;29;20405;-46
2023/03/26 02:32:19;;;;;;;0.03;0.00;;;3.50;91.80;;;;;;20410011;29;20489;-47
2023/03/26 02:42:20;;;;;;;0.32;0.03;;;3.00;92.90;;;;;;20425644;29;20039;-46
2023/03/26 02:52:24;;;;;;;0.98;0.10;;;2.80;93.70;;;;;;20469232;29;20082;-46
2023/03/26 03:02:28;;;;;;;0.20;0.00;;;2.30;94.10;;;;;;20443864;29;20039;-48
2023/03/26 03:12:34;;;;;;;0.45;0.00;;;2.10;94.90;;;;;;20422655;29;20492;-51
2023/03/26 03:22:35;;;;;;;0.70;0.05;;;1.90;95.20;;;;;;20439584;28;20091;-50
2023/03/26 03:32:38;;;;;;;0.15;0.05;;;1.80;94.60;;;;;;20421064;29;20044;-48
2023/03/26 03:42:39;;;;;;;0.10;0.00;;;1.70;95.70;;;;;;20421228;29;20083;-47
2023/03/26 03:52:43;;;;;;;0.57;0.20;;;1.70;94.60;;;;;;20433864;29;20035;-51
2023/03/26 04:02:46;;;;;;;0.45;0.10;;;1.70;95.20;;;;;;20438189;29;20059;-49
2023/03/26 04:12:49;;;;;;;0.30;0.10;;;1.70;95.40;;;;;;20417971;29;20560;-48
2023/03/26 04:22:53;;;;;;;0.13;0.00;;;1.70;95.90;;;;;;20379339;29;20056;-52
2023/03/26 04:33:05;;;;;;;0.30;0.10;;;1.60;95.20;;;;;;20398665;29;20486;-51
2023/03/26 04:43:13;;;;;;;;;;;1.90;94.60;;;;;;20444459;29;20035;-48
2023/03/26 04:53:59;;;;;;;0.20;0.05;;;1.90;95.10;;;;;;20443711;29;19918;-48
2023/03/26 05:04:21;;;;;;;0.52;0.00;;;1.60;95.10;;;;;;20414383;29;20048;-47
2023/03/26 05:14:23;;;;;;;0.10;0.10;;;1.40;95.60;;;;;;20394610;29;20035;-50
2023/03/26 05:24:27;;;;;;;0.90;0.10;;;1.30;95.60;;;;;;20429721;28;20125;-49
2023/03/26 05:34:29;;;;;;;0.52;0.10;;;1.40;96.00;;;;;;20473116;28;20038;-50
2023/03/26 05:44:31;;;;;;;2.03;0.10;;;1.30;96.20;;;;;;20458155;28;20046;-53
2023/03/26 05:54:38;;;;;;;0.50;0.20;;;1.20;96.80;;;;;;20492575;29;20423;-47
2023/03/26 06:05:15;;;;;;;0.35;0.10;;;1.50;97.50;;;;;;20262916;29;20197;-51
2023/03/26 06:15:34;;;;;;;0.68;0.20;;;1.80;97.70;;;;;;20277847;29;20046;-45
2023/03/26 06:25:40;;;;;;;0.80;0.38;;;2.00;98.20;;;;;;20221719;29;20167;-50
2023/03/26 06:35:48;;;;;;;1.15;0.43;;;2.20;98.50;;;;;;20322782;29;20056;-50
2023/03/26 06:45:52;;;;;;;1.13;0.60;;;2.80;98.10;;;;;;20388254;29;20251;-49
2023/03/26 06:56:12;;;;;;;3.15;1.25;;;3.40;98.70;;;;;;20412281;29;20036;-48
2023/03/26 07:06:35;;;;;;;2.83;1.67;;;4.10;99.90;;;;;;20344432;29;20040;-48
2023/03/26 07:17:15;;;;;;;4.37;2.50;;;5.50;98.50;;;;;;20101023;29;20053;-49
2023/03/26 07:27:41;;;;;;;;;;;7.00;96.80;;;;;;20060308;29;20445;-49
2023/03/26 07:38:02;;;;;;;5.22;2.50;;;8.00;98.30;;;;;;20153617;29;19912;-51
2023/03/26 07:48:25;;;;;;;9.85;4.53;;;8.90;97.60;;;;;;20332713;29;20481;-49
2023/03/26 07:59:12;;;;;;;6.35;3.38;;;9.60;98.30;;;;;;20336714;29;20112;-50
2023/03/26 08:09:54;;;;;;;5.53;3.60;;;10.10;97.10;;;;;;20378154;29;20382;-49
2023/03/26 08:20:46;;;;;;;5.68;3.80;;;11.10;96.30;;;;;;20301452;29;20087;-51
2023/03/26 08:30:49;;;;;;;8.00;4.68;;;11.30;96.10;;;;;;20414957;29;20043;-50
2023/03/26 08:40:57;;;;;;;7.32;4.70;;;11.70;96.30;;;;;;20418813;29;20430;-51
2023/03/26 08:51:20;;;;;;;6.43;4.10;;;12.20;95.80;;;;;;20468617;29;20082;-52
2023/03/26 09:01:34;;;;;;;6.43;5.15;;;12.60;92.40;;;;;;20447368;29;20095;-55
2023/03/26 09:11:42;;;;;;;7.00;5.00;;;12.10;95.70;;;;;;20417785;29;20032;-55
2023/03/26 09:22:26;;;;;;;8.90;4.93;;;11.90;96.10;;;;;;20422635;29;20457;-56
2023/03/26 09:32:56;;;;;;;9.00;5.32;;;12.50;96.40;;;;;;20426473;29;20110;-55
2023/03/26 09:43:19;;;;;;;9.13;5.83;;;12.50;95.80;;;;;;20425062;29;20378;-52
2023/03/26 09:53:44;;;;;;;8.57;5.32;;;12.40;96.90;;;;;;20459484;29;20039;-51
2023/03/26 10:03:49;;;;;;;10.43;6.03;;;13.00;96.90;;;;;;20438812;23;20044;-53
2023/03/26 10:14:26;;;;;;;10.55;5.85;;;14.00;97.30;;;;;;20428379;29;20106;-53
2023/03/26 10:24:58;;;;;;;8.27;5.50;;;14.40;94.40;;;;;;20455685;29;20035;-55
2023/03/26 10:35:21;;;;;;;10.73;8.02;;;14.10;93.80;;;;;;20426765;29;20102;-47
2023/03/26 10:45:51;;;;;;;10.02;7.57;;;13.20;97.20;;;;;;20426405;29;20046;-51
2023/03/26 10:56:24;;;;;;;10.05;7.82;;;14.20;97.80;;;;;;20425486;29;20035;-53
2023/03/26 11:06:50;;;;;;;12.13;6.55;;;14.90;97.00;;;;;;20438788;29;20039;-55
2023/03/26 11:17:01;;;;;;;8.50;7.07;;;14.20;95.90;;;;;;20441051;29;20445;-49
2023/03/26 11:27:37;;;;;;;11.82;7.80;;;13.00;97.70;;;;;;20418692;29;20032;-56
2023/03/26 11:37:49;;;;;;;9.68;6.80;;;11.80;99.60;;;;;;20420254;29;20044;-48
2023/03/26 11:48:23;;;;;;;9.68;6.53;;;11.80;99.90;;;;;;20445848;29;20043;-56
2023/03/26 11:58:37;;;;;;;8.40;5.43;;;11.60;99.90;;;;;;20470928;29;20095;-54
2023/03/26 12:08:42;;;;;;;15.38;5.88;;;10.60;99.90;;;;;;20421308;29;20572;-55
2023/03/26 12:18:57;;;;;;;;;;;10.20;99.90;;;;;;20398133;29;20536;-49
2023/03/26 12:29:11;;;;;;;14.48;6.38;;;9.60;99.90;;;;;;20418970;29;19918;-56
2023/03/26 12:39:41;;;;;;;10.40;6.45;;;8.80;99.90;;;;;;20419637;29;20035;-55
2023/03/26 12:49:44;;;;;;;7.38;4.57;;;8.50;99.90;;;;;;20416990;29;20110;-52
2023/03/26 12:59:45;;;;;;;11.43;5.10;;;8.30;99.90;;;;;;20476809;29;20035;-55
2023/03/26 13:09:56;;;;;;;10.32;6.30;;;7.90;99.90;;;;;;20434303;29;20051;-56
2023/03/26 13:20:14;;;;;;;13.20;6.07;;;7.50;99.90;;;;;;20427058;29;20035;-47
2023/03/26 13:30:19;;;;;;;17.48;9.18;;;7.40;99.90;;;;;;20449472;29;20035;-49
2023/03/26 13:40:39;;;;;;;19.25;9.52;;;7.10;99.90;;;;;;20431096;29;20032;-56
2023/03/26 13:50:43;;;;;;;17.10;10.20;;;6.70;99.90;;;;;;20430681;29;20042;-54
2023/03/26 14:00:52;;;;;;;21.75;12.30;;;6.50;99.90;;;;;;20429292;29;20115;-51
2023/03/26 14:11:01;;;;;;;68.43;16.33;;;6.40;99.90;;;;;;20470292;29;20044;-53
2023/03/26 14:21:40;;;;;;;286.52;20.20;;;6.10;99.90;;;;;;20423301;29;20036;-54
2023/03/26 14:32:06;;;;;;;244.38;16.05;;;6.10;99.90;;;;;;20428054;29;20489;-53
2023/03/26 14:42:31;;;;;;;153.90;8.90;;;6.10;99.90;;;;;;20427216;29;20381;-51
2023/03/26 14:52:43;;;;;;;24.73;5.65;;;6.10;99.90;;;;;;20488812;29;20039;-54
2023/03/26 15:03:12;;;;;;;5.97;2.65;;;6.00;99.90;;;;;;20443851;29;20032;-56
2023/03/26 15:13:46;;;;;;;3.90;2.20;;;5.80;99.90;;;;;;20439485;29;20042;-56
2023/03/26 15:24:25;;;;;;;0.20;0.20;;;5.50;99.90;;;;;;20449888;29;20036;-54
2023/03/26 15:34:50;;;;;;;0.40;0.20;;;5.20;99.90;;;;;;20435063;29;20035;-56
2023/03/26 15:45:16;;;;;;;0.00;0.00;;;4.90;99.90;;;;;;20427993;29;20449;-54
2023/03/26 15:55:39;;;;;;;0.57;0.00;;;4.50;99.90;;;;;;20456702;29;20481;-57
2023/03/26 16:06:01;;;;;;;1.23;0.10;;;4.10;99.90;;;;;;20422419;29;20048;-56
2023/03/26 16:16:03;;;;;;;0.13;0.10;;;4.10;99.90;;;;;;20420633;29;20123;-56
2023/03/26 16:26:04;;;;;;;1.75;0.30;;;4.20;99.90;;;;;;20451724;29;20047;-57
2023/03/26 16:36:33;;;;;;;0.50;0.30;;;4.30;99.90;;;;;;20418805;29;20047;-56
2023/03/26 16:46:52;;;;;;;0.80;0.40;;;4.10;99.90;;;;;;20463868;29;20031;-56
2023/03/26 16:56:58;;;;;;;0.88;0.50;;;3.90;99.90;;;;;;20479060;29;20401;-54
2023/03/26 17:07:12;;;;;;;1.23;0.50;;;3.70;99.90;;;;;;20418626;29;20075;-52
2023/03/26 17:17:41;;;;;;;0.47;0.17;;;3.60;99.90;;;;;;20418000;29;20032;-51
2023/03/26 17:27:56;;;;;;;0.85;0.60;;;3.50;99.90;;;;;;20411552;29;20385;-54
2023/03/26 17:37:58;;;;;;;1.20;0.80;;;3.60;99.90;;;;;;20470420;28;20110;-54
2023/03/26 17:48:16;;;;;;;1.60;0.60;;;3.50;99.90;;;;;;20447199;29;20043;-53
2023/03/26 17:58:34;;;;;;;1.13;0.90;;;3.50;99.90;;;;;;20430413;29;20063;-55
2023/03/26 18:09:02;;;;;;;2.65;1.00;;;3.40;99.90;;;;;;20460475;29;20130;-53
2023/03/26 18:19:17;;;;;;;2.38;0.77;;;3.40;99.90;;;;;;20428690;29;20055;-49
2023/03/26 18:29:26;;;;;;;4.82;1.67;;;3.20;99.90;;;;;;20428910;29;20388;-49
2023/03/26 18:39:28;;;;;;;3.35;1.70;;;3.20;99.90;;;;;;20427505;29;20040;-49
2023/03/26 18:49:30;;;;;;;2.38;0.95;;;3.10;99.90;;;;;;20463492;28;20035;-49
2023/03/26 18:59:36;;;;;;;1.30;0.80;;;3.00;99.90;;;;;;20469322;29;20102;-46
2023/03/26 19:09:40;;;;;;;1.08;0.60;;;3.00;99.90;;;;;;20424985;29;20056;-53
2023/03/26 19:19:42;;;;;;;0.82;0.40;;;2.80;99.90;;;;;;20418081;29;20039;-49
2023/03/26 19:29:45;;;;;;;2.53;1.00;;;2.80;99.90;;;;;;20415248;29;20036;-45
2023/03/26 19:39:53;;;;;;;1.85;0.70;;;2.80;99.90;;;;;;20422826;29;20385;-48
2023/03/26 19:50:02;;;;;;;1.25;0.80;;;2.80;99.90;;;;;;20423115;29;20032;-48
2023/03/26 20:00:12;;;;;;;1.48;0.95;;;3.00;99.90;;;;;;20459808;29;20046;-49
2023/03/26 20:10:15;;;;;;;2.97;1.00;;;3.10;99.90;;;;;;20420481;29;20179;-52
2023/03/26 20:20:18;;;;;;;2.70;1.10;;;3.10;99.90;;;;;;20398409;29;20091;-45
2023/03/26 20:30:21;;;;;;;1.92;1.10;;;3.00;99.90;;;;;;20432433;29;20044;-46
2023/03/26 20:40:24;;;;;;;1.13;0.75;;;3.00;99.90;;;;;;20434179;29;20043;-44
2023/03/26 20:50:25;;;;;;;1.50;0.80;;;2.90;99.90;;;;;;20487807;29;20031;-52
2023/03/26 21:00:27;;;;;;;1.67;0.60;;;2.90;99.90;;;;;;20444470;29;20386;-45
2023/03/26 21:10:29;;;;;;;1.52;0.68;;;2.90;99.90;;;;;;20400563;29;20051;-47
2023/03/26 21:20:33;;;;;;;2.45;0.80;;;3.10;99.90;;;;;;20428365;29;20381;-51
2023/03/26 21:30:35;;;;;;;2.00;1.10;;;3.10;99.90;;;;;;20433381;29;20473;-47
2023/03/26 21:40:37;;;;;;;4.38;1.20;;;2.60;99.90;;;;;;20505442;29;20038;-48
2023/03/26 21:50:39;;;;;;;3.53;1.40;;;2.10;99.90;;;;;;20430768;29;20039;-48
2023/03/26 22:00:54;;;;;;;2.25;1.40;;;2.10;99.90;;;;;;20413093;29;20036;-51
2023/03/26 22:10:56;;;;;;;1.25;0.60;;;1.80;99.90;;;;;;20471490;29;20039;-50
2023/03/26 22:20:59;;;;;;;1.25;0.75;;;1.50;99.90;;;;;;20423031;29;20040;-48
2023/03/26 22:31:08;;;;;;;1.13;0.63;;;1.40;99.90;;;;;;20427057;29;20039;-50
2023/03/26 22:41:10;;;;;;;0.20;0.10;;;1.10;99.90;;;;;;20426693;29;20136;-47
2023/03/26 22:51:11;;;;;;;0.70;0.10;;;0.90;99.90;;;;;;20477854;29;20028;-48
2023/03/26 23:01:20;;;;;;;0.10;0.00;;;0.70;99.90;;;;;;20455710;29;20083;-50
2023/03/26 23:11:22;;;;;;;0.10;0.00;;;1.00;99.90;;;;;;20424581;29;20039;-48
2023/03/26 23:21:23;;;;;;;1.65;0.08;;;0.80;99.90;;;;;;20418423;29;20062;-48
2023/03/26 23:31:26;;;;;;;0.10;0.00;;;0.60;99.90;;;;;;20422972;29;20044;-50
2023/03/26 23:41:27;;;;;;;0.00;0.00;;;0.50;99.90;;;;;;20422269;29;20130;-48
2023/03/26 23:51:29;;;;;;;0.00;0.00;;;0.60;99.90;;;;;;20436505;29;20027;-49
